createdAt,value
2024-04-12T00:01:11.499Z,103156.31
2024-04-12T00:03:38.329Z,103154.72
2024-04-12T00:06:18.620Z,103148.81
2024-04-12T00:08:50.411Z,103152.03
2024-04-12T00:11:21.306Z,103149.38
2024-04-12T00:13:53.555Z,103138.66
2024-04-12T00:16:27.014Z,103145.09
2024-04-12T00:19:20.356Z,103140.81
2024-04-12T00:21:48.041Z,103143.22
2024-04-12T00:24:18.204Z,103143.47
2024-04-12T00:26:49.823Z,103128.53
2024-04-12T00:29:38.673Z,103132.78
2024-04-12T00:32:20.302Z,103128.53
2024-04-12T00:34:53.129Z,103121.09
2024-04-12T00:37:22.628Z,103116.78
2024-04-12T00:39:51.249Z,103124.31
2024-04-12T00:42:34.316Z,103131.81
2024-04-12T00:45:05.529Z,103108.84
2024-04-12T00:47:34.916Z,103112.88
2024-04-12T00:50:04.552Z,103099.00
2024-04-12T00:52:34.930Z,103096.31
2024-04-12T00:55:05.423Z,103096.59
2024-04-12T00:57:42.596Z,103092.31
2024-04-12T01:00:11.586Z,103081.63
2024-04-12T01:02:44.186Z,103085.41
2024-04-12T01:05:16.497Z,103083.00
2024-04-12T01:07:50.656Z,103076.06
2024-04-12T01:10:22.846Z,103075.78
2024-04-12T01:12:49.595Z,103071.78
2024-04-12T01:15:20.446Z,103067.53
2024-04-12T01:17:48.395Z,103064.06
2024-04-12T01:20:17.099Z,103061.38
2024-04-12T01:22:46.223Z,103063.56
2024-04-12T01:25:14.727Z,103063.56
2024-04-12T01:27:42.768Z,103060.88
2024-04-12T01:30:13.950Z,103053.94
2024-04-12T01:32:41.034Z,103053.16
2024-04-12T01:35:10.150Z,103060.34
2024-04-12T01:37:36.891Z,103057.97
2024-04-12T01:40:04.526Z,103066.00
2024-04-12T01:42:31.801Z,103059.31
2024-04-12T01:45:16.675Z,103057.72
2024-04-12T01:47:48.252Z,103072.94
2024-04-12T01:50:22.842Z,103071.34
2024-04-12T01:52:56.227Z,103070.56
2024-04-12T01:55:25.889Z,103071.63
2024-04-12T01:57:54.577Z,103079.66
2024-04-12T02:00:22.244Z,103076.97
2024-04-12T02:03:01.654Z,103084.50
2024-04-12T02:05:35.848Z,103075.69
2024-04-12T02:08:25.116Z,103082.88
2024-04-12T02:10:55.087Z,103064.16
2024-04-12T02:13:24.195Z,103067.91
2024-04-12T02:15:53.336Z,103064.44
2024-04-12T02:18:22.109Z,103065.53
2024-04-12T02:20:50.877Z,103063.16
2024-04-12T02:23:20.324Z,103060.47
2024-04-12T02:25:48.797Z,103064.25
2024-04-12T02:28:18.093Z,103068.50
2024-04-12T02:30:46.817Z,103072.25
2024-04-12T02:33:18.025Z,103058.06
2024-04-12T02:35:48.206Z,103060.25
2024-04-12T02:38:22.633Z,103062.13
2024-04-12T02:40:51.997Z,103052.22
2024-04-12T02:43:19.352Z,103055.97
2024-04-12T02:45:49.614Z,103067.47
2024-04-12T02:48:19.172Z,103057.84
2024-04-12T02:50:45.868Z,103055.97
2024-04-12T02:53:19.017Z,103059.72
2024-04-12T02:55:48.629Z,103060.53
2024-04-12T02:58:19.375Z,103053.59
2024-04-12T03:00:46.341Z,103068.53
2024-04-12T03:03:17.452Z,103055.47
2024-04-12T03:05:45.299Z,103058.94
2024-04-12T03:08:19.248Z,103056.53
2024-04-12T03:10:46.894Z,103056.28
2024-04-12T03:13:14.033Z,103044.78
2024-04-12T03:15:41.729Z,103042.38
2024-04-12T03:18:11.841Z,103039.72
2024-04-12T03:20:39.177Z,103044.25
2024-04-12T03:23:05.790Z,103042.38
2024-04-12T03:25:32.488Z,103029.03
2024-04-12T03:27:59.063Z,103041.59
2024-04-12T03:30:27.125Z,103045.84
2024-04-12T03:32:53.802Z,103038.91
2024-04-12T03:35:21.559Z,103037.31
2024-04-12T03:38:09.388Z,103036.53
2024-04-12T03:40:36.016Z,103023.19
2024-04-12T03:43:03.827Z,103020.50
2024-04-12T03:45:36.669Z,103017.31
2024-04-12T03:48:14.661Z,103013.84
2024-04-12T03:50:51.451Z,103005.03
2024-04-12T03:53:18.057Z,103005.31
2024-04-12T03:55:55.481Z,103014.13
2024-04-12T03:58:23.578Z,103020.25
2024-04-12T04:00:52.876Z,103016.50
2024-04-12T04:03:34.751Z,103018.38
2024-04-12T04:06:07.318Z,103004.22
2024-04-12T04:08:49.933Z,103001.84
2024-04-12T04:11:17.350Z,103003.44
2024-04-12T04:13:50.980Z,103015.72
2024-04-12T04:16:20.162Z,103014.91
2024-04-12T04:18:51.269Z,103010.38
2024-04-12T04:21:18.146Z,103010.38
2024-04-12T04:23:44.740Z,103012.78
2024-04-12T04:26:11.367Z,103013.56
2024-04-12T04:28:41.704Z,103026.63
2024-04-12T04:31:08.407Z,103014.38
2024-04-12T04:33:36.106Z,103009.53
2024-04-12T04:36:10.301Z,103014.06
2024-04-12T04:38:40.314Z,103009.25
2024-04-12T04:41:07.926Z,103008.19
2024-04-12T04:43:35.335Z,103004.44
2024-04-12T04:46:31.292Z,103009.78
2024-04-12T04:48:58.092Z,103002.56
2024-04-12T04:51:24.923Z,102996.41
2024-04-12T04:53:54.660Z,102996.72
2024-04-12T04:56:28.187Z,103005.50
2024-04-12T04:58:55.279Z,103000.16
2024-04-12T05:01:26.119Z,102992.41
2024-04-12T05:03:53.666Z,102987.06
2024-04-12T05:06:26.688Z,102996.19
2024-04-12T05:08:54.417Z,102999.38
2024-04-12T05:11:22.130Z,103010.56
2024-04-12T05:13:51.488Z,103006.81
2024-04-12T05:16:20.581Z,103007.31
2024-04-12T05:18:50.603Z,103007.06
2024-04-12T05:21:17.321Z,102998.75
2024-04-12T05:23:44.245Z,103004.88
2024-04-12T05:26:12.155Z,102995.78
2024-04-12T05:28:38.783Z,102997.91
2024-04-12T05:31:13.001Z,103002.66
2024-04-12T05:33:44.333Z,103003.72
2024-04-12T05:36:12.512Z,102992.50
2024-04-12T05:38:39.360Z,102999.94
2024-04-12T05:41:06.408Z,103000.97
2024-04-12T05:43:33.232Z,102991.56
2024-04-12T05:46:01.841Z,102993.19
2024-04-12T05:48:29.024Z,102993.19
2024-04-12T05:50:56.999Z,102991.00
2024-04-12T05:53:33.581Z,102994.75
2024-04-12T05:56:20.312Z,102984.88
2024-04-12T05:58:47.249Z,102998.72
2024-04-12T06:01:13.930Z,102993.91
2024-04-12T06:03:53.725Z,103001.13
2024-04-12T06:06:23.389Z,102999.25
2024-04-12T06:08:50.251Z,102998.19
2024-04-12T06:11:19.659Z,102997.88
2024-04-12T06:13:56.341Z,102999.75
2024-04-12T06:16:25.773Z,103006.94
2024-04-12T06:18:53.065Z,103011.69
2024-04-12T06:21:20.511Z,103010.84
2024-04-12T06:23:50.581Z,103010.78
2024-04-12T06:26:17.389Z,103002.69
2024-04-12T06:28:45.881Z,103006.59
2024-04-12T06:31:21.450Z,103014.50
2024-04-12T06:33:50.759Z,103017.78
2024-04-12T06:36:18.172Z,103013.66
2024-04-12T06:38:45.417Z,103015.69
2024-04-12T06:41:16.161Z,102995.88
2024-04-12T06:43:46.617Z,103002.50
2024-04-12T06:46:14.905Z,103011.63
2024-04-12T06:48:43.301Z,103007.28
2024-04-12T06:51:14.750Z,103020.91
2024-04-12T06:53:48.654Z,103021.09
2024-04-12T06:56:17.967Z,103035.81
2024-04-12T06:58:48.215Z,103038.47
2024-04-12T07:01:16.771Z,103036.38
2024-04-12T07:03:48.115Z,103032.59
2024-04-12T07:06:17.616Z,103038.75
2024-04-12T07:08:51.212Z,103036.00
2024-04-12T07:11:19.387Z,103029.47
2024-04-12T07:13:51.389Z,103035.81
2024-04-12T07:16:19.470Z,103036.75
2024-04-12T07:18:51.103Z,103031.00
2024-04-12T07:21:24.177Z,103034.97
2024-04-12T07:23:51.342Z,103029.69
2024-04-12T07:26:31.084Z,103032.09
2024-04-12T07:29:01.494Z,103020.59
2024-04-12T07:31:31.720Z,103023.50
2024-04-12T07:34:00.873Z,103022.09
2024-04-12T07:36:32.268Z,103029.66
2024-04-12T07:39:06.804Z,103030.84
2024-04-12T07:41:45.507Z,103034.69
2024-04-12T07:44:15.514Z,103038.38
2024-04-12T07:46:53.711Z,103024.97
2024-04-12T07:49:21.056Z,103027.06
2024-04-12T07:51:52.791Z,103022.09
2024-04-12T07:54:19.956Z,103031.34
2024-04-12T07:56:58.232Z,103024.00
2024-04-12T07:59:27.459Z,103015.13
2024-04-12T08:01:54.155Z,103025.28
2024-04-12T08:04:27.335Z,103007.81
2024-04-12T08:06:58.175Z,103012.47
2024-04-12T08:09:35.550Z,103017.03
2024-04-12T08:12:16.889Z,103010.09
2024-04-12T08:14:55.177Z,103009.03
2024-04-12T08:17:41.252Z,103008.34
2024-04-12T08:20:15.307Z,103007.59
2024-04-12T08:22:44.963Z,103006.41
2024-04-12T08:25:18.946Z,103010.94
2024-04-12T08:27:45.672Z,102999.56
2024-04-12T08:30:21.361Z,103006.06
2024-04-12T08:32:51.050Z,103009.38
2024-04-12T08:35:21.949Z,103003.06
2024-04-12T08:37:52.888Z,103008.03
2024-04-12T08:40:22.926Z,103015.31
2024-04-12T08:42:50.408Z,103017.66
2024-04-12T08:45:20.649Z,103019.56
2024-04-12T08:48:06.002Z,103026.84
2024-04-12T08:50:33.648Z,103016.53
2024-04-12T08:53:06.296Z,103032.97
2024-04-12T08:55:34.473Z,103028.88
2024-04-12T08:58:05.914Z,103026.59
2024-04-12T09:00:38.347Z,103018.59
2024-04-12T09:03:26.379Z,103032.88
2024-04-12T09:05:54.666Z,103028.63
2024-04-12T09:08:23.707Z,103021.97
2024-04-12T09:10:54.532Z,103016.75
2024-04-12T09:13:21.629Z,103017.38
2024-04-12T09:15:51.708Z,103024.53
2024-04-12T09:18:28.658Z,103022.47
2024-04-12T09:21:07.597Z,103026.09
2024-04-12T09:23:36.094Z,103033.25
2024-04-12T09:26:23.660Z,103044.31
2024-04-12T09:28:52.922Z,103035.75
2024-04-12T09:31:38.157Z,103032.59
2024-04-12T09:34:24.157Z,103051.91
2024-04-12T09:37:26.052Z,103041.63
2024-04-12T09:39:59.392Z,103035.44
2024-04-12T09:42:46.288Z,103030.50
2024-04-12T09:45:24.248Z,103034.19
2024-04-12T09:48:12.639Z,103033.38
2024-04-12T09:50:59.833Z,103034.00
2024-04-12T09:53:45.522Z,103023.75
2024-04-12T09:56:35.820Z,103028.16
2024-04-12T09:59:41.584Z,103031.81
2024-04-12T10:02:34.056Z,103032.56
2024-04-12T10:05:24.020Z,103012.09
2024-04-12T10:08:13.096Z,103020.84
2024-04-12T10:11:00.320Z,103019.38
2024-04-12T10:13:46.583Z,103019.72
2024-04-12T10:16:38.474Z,103010.69
2024-04-12T10:19:30.965Z,103025.09
2024-04-12T10:22:33.628Z,103020.63
2024-04-12T10:25:22.855Z,103033.81
2024-04-12T10:28:12.389Z,103029.06
2024-04-12T10:31:04.354Z,103030.00
2024-04-12T10:33:49.737Z,103034.16
2024-04-12T10:36:35.195Z,103040.16
2024-04-12T10:39:01.976Z,103038.25
2024-04-12T10:41:36.458Z,103032.25
2024-04-12T10:44:04.954Z,103017.50
2024-04-12T10:46:34.560Z,103017.63
2024-04-12T10:49:01.387Z,103007.69
2024-04-12T10:51:29.752Z,103008.56
2024-04-12T10:53:58.305Z,103004.63
2024-04-12T10:56:27.869Z,103000.19
2024-04-12T10:58:57.608Z,103012.56
2024-04-12T11:01:25.024Z,103019.75
2024-04-12T11:03:58.224Z,103007.94
2024-04-12T11:06:33.514Z,103007.63
2024-04-12T11:09:09.174Z,103002.28
2024-04-12T11:11:44.948Z,103000.09
2024-04-12T11:14:29.159Z,103004.97
2024-04-12T11:17:17.413Z,102998.19
2024-04-12T11:20:03.307Z,103005.38
2024-04-12T11:22:48.304Z,102998.81
2024-04-12T11:25:34.683Z,103011.00
2024-04-12T11:28:24.230Z,102993.22
2024-04-12T11:31:17.266Z,102994.63
2024-04-12T11:33:48.609Z,102994.06
2024-04-12T11:36:21.394Z,102994.22
2024-04-12T11:38:49.501Z,102983.78
2024-04-12T11:41:17.316Z,102985.38
2024-04-12T11:43:47.393Z,102985.59
2024-04-12T11:46:15.709Z,102992.34
2024-04-12T11:48:44.368Z,102981.16
2024-04-12T11:51:11.333Z,102981.09
2024-04-12T11:53:39.097Z,102983.19
2024-04-12T11:56:06.039Z,102988.16
2024-04-12T11:58:32.643Z,102989.72
2024-04-12T12:01:00.375Z,102990.59
2024-04-12T12:03:27.175Z,102990.28
2024-04-12T12:05:54.760Z,102989.81
2024-04-12T12:08:33.885Z,102988.13
2024-04-12T12:11:01.636Z,102991.25
2024-04-12T12:13:29.985Z,102992.84
2024-04-12T12:15:56.595Z,102991.84
2024-04-12T12:18:25.730Z,102994.56
2024-04-12T12:20:52.902Z,102986.22
2024-04-12T12:23:19.735Z,102979.69
2024-04-12T12:25:48.732Z,102982.59
2024-04-12T12:28:15.278Z,102978.31
2024-04-12T12:30:42.628Z,102964.59
2024-04-12T12:33:11.613Z,102958.25
2024-04-12T12:35:38.773Z,102963.28
2024-04-12T12:38:06.563Z,102960.16
2024-04-12T12:40:33.385Z,102965.63
2024-04-12T12:43:00.025Z,102948.63
2024-04-12T12:45:28.987Z,102940.47
2024-04-12T12:47:55.819Z,102944.41
2024-04-12T12:50:24.557Z,102941.69
2024-04-12T12:52:52.320Z,102941.50
2024-04-12T12:55:24.567Z,102936.22
2024-04-12T12:58:10.548Z,102934.50
2024-04-12T13:00:41.208Z,102929.66
2024-04-12T13:03:13.564Z,102929.22
2024-04-12T13:05:40.503Z,102919.88
2024-04-12T13:08:11.187Z,102923.00
2024-04-12T13:10:39.272Z,102917.47
2024-04-12T13:13:07.421Z,102923.91
2024-04-12T13:15:34.581Z,102927.16
2024-04-12T13:18:01.314Z,102920.19
2024-04-12T13:20:28.111Z,102927.97
2024-04-12T13:22:54.743Z,102926.97
2024-04-12T13:25:21.380Z,102927.84
2024-04-12T13:27:55.181Z,102927.25
2024-04-12T13:30:25.830Z,102921.97
2024-04-12T13:32:59.693Z,102926.13
2024-04-12T13:35:26.647Z,102926.03
2024-04-12T13:37:56.409Z,102913.66
2024-04-12T13:40:23.052Z,102907.13
2024-04-12T13:42:50.969Z,102914.44
2024-04-12T13:45:36.391Z,102911.75
2024-04-12T13:48:21.755Z,102906.78
2024-04-12T13:50:57.603Z,102893.25
2024-04-12T13:53:33.991Z,102889.16
2024-04-12T13:56:21.918Z,102890.38
2024-04-12T13:59:00.057Z,102889.34
2024-04-12T14:01:27.457Z,102885.66
2024-04-12T14:03:55.098Z,102871.44
2024-04-12T14:06:25.354Z,102877.19
2024-04-12T14:08:53.802Z,102864.78
2024-04-12T14:11:20.869Z,102863.47
2024-04-12T14:13:47.753Z,102871.06
2024-04-12T14:16:14.895Z,102880.00
2024-04-12T14:18:41.685Z,102873.09
2024-04-12T14:21:09.043Z,102876.38
2024-04-12T14:23:35.711Z,102881.44
2024-04-12T14:26:02.437Z,102873.44
2024-04-12T14:28:29.889Z,102861.72
2024-04-12T14:30:56.935Z,102871.63
2024-04-12T14:33:29.699Z,102864.16
2024-04-12T14:35:56.493Z,102863.75
2024-04-12T14:38:23.100Z,102868.94
2024-04-12T14:40:53.450Z,102867.34
2024-04-12T14:43:22.426Z,102862.28
2024-04-12T14:45:49.058Z,102864.88
2024-04-12T14:48:15.794Z,102861.16
2024-04-12T14:50:51.961Z,102855.88
2024-04-12T14:53:25.351Z,102859.03
2024-04-12T14:55:52.224Z,102859.13
2024-04-12T14:58:21.675Z,102856.31
2024-04-12T15:00:50.010Z,102854.63
2024-04-12T15:03:35.828Z,102857.22
2024-04-12T15:06:21.958Z,102856.41
2024-04-12T15:09:07.184Z,102846.19
2024-04-12T15:11:52.416Z,102842.22
2024-04-12T15:14:39.873Z,102841.44
2024-04-12T15:17:25.396Z,102840.31
2024-04-12T15:20:10.725Z,102829.38
2024-04-12T15:22:56.214Z,102836.94
2024-04-12T15:25:42.136Z,102832.66
2024-04-12T15:28:27.637Z,102834.56
2024-04-12T15:31:12.677Z,102844.91
2024-04-12T15:33:58.369Z,102837.09
2024-04-12T15:36:43.487Z,102836.25
2024-04-12T15:39:28.618Z,102823.63
2024-04-12T15:42:13.573Z,102828.09
2024-04-12T15:45:03.000Z,102827.00
2024-04-12T15:47:29.747Z,102826.28
2024-04-12T15:50:17.463Z,102828.22
2024-04-12T15:53:06.525Z,102828.22
2024-04-12T15:56:02.338Z,102841.84
2024-04-12T15:58:48.569Z,102847.44
2024-04-12T16:01:34.755Z,102836.81
2024-04-12T16:04:21.958Z,102843.28
2024-04-12T16:07:08.204Z,102833.50
2024-04-12T16:09:57.575Z,102829.16
2024-04-12T16:12:26.725Z,102819.44
2024-04-12T16:14:57.231Z,102818.69
2024-04-12T16:17:25.327Z,102824.28
2024-04-12T16:19:54.231Z,102814.03
2024-04-12T16:22:20.922Z,102811.53
2024-04-12T16:24:47.627Z,102823.28
2024-04-12T16:27:14.578Z,102811.91
2024-04-12T16:29:41.664Z,102816.50
2024-04-12T16:32:09.691Z,102807.34
2024-04-12T16:34:38.183Z,102820.00
2024-04-12T16:37:07.839Z,102818.75
2024-04-12T16:39:37.404Z,102821.63
2024-04-12T16:42:04.408Z,102815.78
2024-04-12T16:44:31.006Z,102821.06
2024-04-12T16:46:58.884Z,102816.50
2024-04-12T16:49:25.751Z,102807.16
2024-04-12T16:51:55.994Z,102803.88
2024-04-12T16:54:24.554Z,102803.25
2024-04-12T16:56:51.727Z,102798.84
2024-04-12T16:59:18.391Z,102800.59
2024-04-12T17:01:45.120Z,102791.13
2024-04-12T17:04:11.821Z,102791.75
2024-04-12T17:06:38.497Z,102783.22
2024-04-12T17:09:10.987Z,102789.25
2024-04-12T17:11:39.285Z,102792.91
2024-04-12T17:14:06.325Z,102799.91
2024-04-12T17:16:32.906Z,102785.50
2024-04-12T17:19:01.113Z,102793.75
2024-04-12T17:21:34.543Z,102797.41
2024-04-12T17:24:02.087Z,102796.13
2024-04-12T17:26:33.463Z,102802.19
2024-04-12T17:29:00.236Z,102802.81
2024-04-12T17:31:26.883Z,102801.88
2024-04-12T17:33:53.652Z,102799.03
2024-04-12T17:36:20.494Z,102791.88
2024-04-12T17:38:49.222Z,102793.16
2024-04-12T17:41:16.058Z,102788.72
2024-04-12T17:43:42.674Z,102788.59
2024-04-12T17:46:09.577Z,102794.94
2024-04-12T17:48:36.464Z,102787.97
2024-04-12T17:51:04.516Z,102788.25
2024-04-12T17:53:37.990Z,102784.16
2024-04-12T17:56:05.182Z,102786.72
2024-04-12T17:58:31.809Z,102782.28
2024-04-12T18:01:06.158Z,102782.91
2024-04-12T18:03:37.452Z,102788.44
2024-04-12T18:06:04.940Z,102791.00
2024-04-12T18:08:31.551Z,102779.59
2024-04-12T18:11:05.914Z,102777.06
2024-04-12T18:13:33.130Z,102785.28
2024-04-12T18:16:00.073Z,102795.06
2024-04-12T18:18:27.091Z,102782.28
2024-04-12T18:20:55.154Z,102779.75
2024-04-12T18:23:22.559Z,102787.94
2024-04-12T18:25:57.913Z,102783.50
2024-04-12T18:28:26.874Z,102782.25
2024-04-12T18:30:54.202Z,102773.84
2024-04-12T18:33:23.854Z,102774.50
2024-04-12T18:36:03.465Z,102773.03
2024-04-12T18:38:49.179Z,102785.97
2024-04-12T18:41:34.483Z,102778.22
2024-04-12T18:44:19.449Z,102778.69
2024-04-12T18:46:45.995Z,102778.19
2024-04-12T18:49:13.024Z,102779.16
2024-04-12T18:51:39.798Z,102779.56
2024-04-12T18:54:06.719Z,102782.91
2024-04-12T18:56:36.846Z,102786.50
2024-04-12T18:59:04.230Z,102791.69
2024-04-12T19:01:30.849Z,102794.22
2024-04-12T19:03:57.725Z,102782.03
2024-04-12T19:06:24.454Z,102783.75
2024-04-12T19:08:51.282Z,102782.19
2024-04-12T19:11:18.650Z,102782.19
2024-04-12T19:13:45.560Z,102764.63
2024-04-12T19:16:13.447Z,102765.06
2024-04-12T19:18:41.707Z,102766.00
2024-04-12T19:21:09.931Z,102765.03
2024-04-12T19:23:39.638Z,102763.13
2024-04-12T19:26:06.631Z,102761.34
2024-04-12T19:28:33.636Z,102755.84
2024-04-12T19:31:06.782Z,102761.63
2024-04-12T19:33:33.806Z,102764.94
2024-04-12T19:36:04.304Z,102755.44
2024-04-12T19:38:35.954Z,102759.03
2024-04-12T19:41:06.803Z,102756.75
2024-04-12T19:43:34.562Z,102761.44
2024-04-12T19:46:01.296Z,102768.50
2024-04-12T19:48:28.773Z,102771.31
2024-04-12T19:50:57.013Z,102769.25
2024-04-12T19:53:24.844Z,102759.44
2024-04-12T19:55:59.919Z,102761.91
2024-04-12T19:58:27.277Z,102760.34
2024-04-12T20:00:54.128Z,102766.91
2024-04-12T20:03:22.402Z,102762.16
2024-04-12T20:05:50.587Z,102766.72
2024-04-12T20:08:20.165Z,102762.78
2024-04-12T20:11:06.591Z,102763.09
2024-04-12T20:13:34.578Z,102769.34
2024-04-12T20:16:07.390Z,102769.94
2024-04-12T20:18:41.077Z,102769.56
2024-04-12T20:21:12.019Z,102767.63
2024-04-12T20:23:39.068Z,102771.19
2024-04-12T20:26:14.479Z,102748.75
2024-04-12T20:28:54.769Z,102754.22
2024-04-12T20:31:22.310Z,102759.38
2024-04-12T20:33:58.207Z,102751.47
2024-04-12T20:36:38.974Z,102747.19
2024-04-12T20:39:13.660Z,102755.84
2024-04-12T20:41:44.453Z,102756.44
2024-04-12T20:44:12.817Z,102757.63
2024-04-12T20:46:40.437Z,102757.94
2024-04-12T20:49:07.950Z,102756.47
2024-04-12T20:51:34.588Z,102751.50
2024-04-12T20:54:01.803Z,102746.44
2024-04-12T20:56:30.477Z,102752.38
2024-04-12T20:58:58.591Z,102742.25
2024-04-12T21:01:30.776Z,102741.28
2024-04-12T21:03:57.441Z,102746.31
2024-04-12T21:06:24.380Z,102741.75
2024-04-12T21:08:51.363Z,102752.78
2024-04-12T21:11:24.929Z,102751.69
2024-04-12T21:13:53.641Z,102754.34
2024-04-12T21:16:20.662Z,102745.81
2024-04-12T21:18:49.022Z,102752.25
2024-04-12T21:21:16.131Z,102748.00
2024-04-12T21:23:42.878Z,102742.66
2024-04-12T21:26:09.618Z,102742.16
2024-04-12T21:28:38.140Z,102734.41
2024-04-12T21:31:06.475Z,102737.38
2024-04-12T21:33:33.130Z,102731.25
2024-04-12T21:36:08.187Z,102738.78
2024-04-12T21:38:38.974Z,102741.75
2024-04-12T21:41:10.764Z,102740.16
2024-04-12T21:43:38.822Z,102736.38
2024-04-12T21:46:12.866Z,102733.22
2024-04-12T21:48:44.624Z,102732.44
2024-04-12T21:51:13.784Z,102741.34
2024-04-12T21:53:41.776Z,102737.09
2024-04-12T21:56:11.874Z,102730.16
2024-04-12T21:58:38.783Z,102730.47
2024-04-12T22:01:10.135Z,102723.31
2024-04-12T22:03:49.606Z,102725.47
2024-04-12T22:06:16.803Z,102725.19
2024-04-12T22:08:44.116Z,102717.19
2024-04-12T22:11:11.521Z,102723.31
2024-04-12T22:13:39.194Z,102724.69
2024-04-12T22:16:14.299Z,102716.97
2024-04-12T22:18:41.824Z,102721.22
2024-04-12T22:21:18.183Z,102725.78
2024-04-12T22:23:46.366Z,102726.56
2024-04-12T22:26:17.784Z,102719.06
2024-04-12T22:28:45.958Z,102717.44
2024-04-12T22:31:17.975Z,102718.53
2024-04-12T22:33:46.526Z,102720.72
2024-04-12T22:36:13.630Z,102715.56
2024-04-12T22:38:40.533Z,102722.81
2024-04-12T22:41:07.988Z,102715.09
2024-04-12T22:43:34.629Z,102714.28
2024-04-12T22:46:01.231Z,102716.38
2024-04-12T22:48:27.915Z,102711.53
2024-04-12T22:50:55.117Z,102715.78
2024-04-12T22:53:22.690Z,102720.03
2024-04-12T22:55:52.803Z,102719.44
2024-04-12T22:58:19.655Z,102710.34
2024-04-12T23:00:49.699Z,102701.50
2024-04-12T23:03:24.033Z,102715.69
2024-04-12T23:05:50.675Z,102715.19
2024-04-12T23:08:17.300Z,102720.56
2024-04-12T23:10:43.917Z,102716.56
2024-04-12T23:13:13.011Z,102718.75
2024-04-12T23:15:39.871Z,102707.53
2024-04-12T23:18:06.672Z,102714.78
2024-04-12T23:20:33.331Z,102710.81
2024-04-12T23:22:59.956Z,102709.50
2024-04-12T23:25:26.554Z,102712.19
2024-04-12T23:27:59.634Z,102711.72
2024-04-12T23:30:26.569Z,102706.66
2024-04-12T23:32:53.323Z,102713.91
2024-04-12T23:35:19.948Z,102707.94
2024-04-12T23:37:46.844Z,102708.25
2024-04-12T23:40:13.434Z,102695.97
2024-04-12T23:42:40.619Z,102698.13
2024-04-12T23:45:07.373Z,102700.59
2024-04-12T23:47:34.047Z,102694.16
2024-04-12T23:50:00.748Z,102694.75
2024-04-12T23:52:27.489Z,102692.38
2024-04-12T23:54:54.248Z,102690.78
2024-04-12T23:57:20.949Z,102688.59
2024-04-12T23:59:48.195Z,102686.22
